sensor_id;sensor_type;location;lat;lon;timestamp;pressure;altitude;pressure_sealevel;temperature
30765;BMP180;494;48.744;10.106;2023-01-19T00:01:45;93820.00;;;1.10
30765;BMP180;494;48.744;10.106;2023-01-19T00:04:15;94506.00;;;1.00
30765;BMP180;494;48.744;10.106;2023-01-19T00:06:46;94242.00;;;0.50
30765;BMP180;494;48.744;10.106;2023-01-19T00:09:16;94010.00;;;-0.50
30765;BMP180;494;48.744;10.106;2023-01-19T00:11:46;93872.00;;;-1.00
30765;BMP180;494;48.744;10.106;2023-01-19T00:14:16;94365.00;;;0.70
30765;BMP180;494;48.744;10.106;2023-01-19T00:16:46;94029.00;;;0.00
30765;BMP180;494;48.744;10.106;2023-01-19T00:19:16;94271.00;;;-0.90
30765;BMP180;494;48.744;10.106;2023-01-19T00:21:47;94424.00;;;0.60
30765;BMP180;494;48.744;10.106;2023-01-19T00:24:18;94513.00;;;-0.90
30765;BMP180;494;48.744;10.106;2023-01-19T00:26:47;94245.00;;;0.50
30765;BMP180;494;48.744;10.106;2023-01-19T00:29:17;94064.00;;;0.30
30765;BMP180;494;48.744;10.106;2023-01-19T00:31:47;93891.00;;;-2.30
30765;BMP180;494;48.744;10.106;2023-01-19T00:34:18;94147.00;;;0.30
30765;BMP180;494;48.744;10.106;2023-01-19T00:36:49;94219.00;;;-0.30
30765;BMP180;494;48.744;10.106;2023-01-19T00:39:18;94675.00;;;0.30
30765;BMP180;494;48.744;10.106;2023-01-19T00:41:48;94044.00;;;0.30
30765;BMP180;494;48.744;10.106;2023-01-19T00:44:34;93632.00;;;0.20
30765;BMP180;494;48.744;10.106;2023-01-19T00:47:04;93784.00;;;0.30
30765;BMP180;494;48.744;10.106;2023-01-19T00:49:33;93813.00;;;-1.10
30765;BMP180;494;48.744;10.106;2023-01-19T00:52:04;94251.00;;;0.10
30765;BMP180;494;48.744;10.106;2023-01-19T00:54:34;94477.00;;;0.10
30765;BMP180;494;48.744;10.106;2023-01-19T00:57:03;94558.00;;;0.00
30765;BMP180;494;48.744;10.106;2023-01-19T00:59:33;94119.00;;;-2.10
30765;BMP180;494;48.744;10.106;2023-01-19T01:02:02;93142.00;;;-0.50
30765;BMP180;494;48.744;10.106;2023-01-19T01:04:32;94561.00;;;0.10
30765;BMP180;494;48.744;10.106;2023-01-19T01:07:05;94553.00;;;0.00
30765;BMP180;494;48.744;10.106;2023-01-19T01:09:34;94531.00;;;-0.10
30765;BMP180;494;48.744;10.106;2023-01-19T01:12:04;94524.00;;;-0.10
30765;BMP180;494;48.744;10.106;2023-01-19T01:14:34;94488.00;;;-0.10
30765;BMP180;494;48.744;10.106;2023-01-19T01:17:03;94502.00;;;-0.20
30765;BMP180;494;48.744;10.106;2023-01-19T01:19:33;94604.00;;;-0.80
30765;BMP180;494;48.744;10.106;2023-01-19T01:22:02;94665.00;;;-2.50
30765;BMP180;494;48.744;10.106;2023-01-19T01:24:32;93440.00;;;-3.10
30765;BMP180;494;48.744;10.106;2023-01-19T01:27:02;93922.00;;;-0.60
30765;BMP180;494;48.744;10.106;2023-01-19T01:29:31;94398.00;;;-1.30
30765;BMP180;494;48.744;10.106;2023-01-19T01:32:02;94636.00;;;-0.60
30765;BMP180;494;48.744;10.106;2023-01-19T01:34:32;94690.00;;;-0.60
30765;BMP180;494;48.744;10.106;2023-01-19T01:37:02;94551.00;;;-0.60
30765;BMP180;494;48.744;10.106;2023-01-19T01:39:36;94355.00;;;-0.60
30765;BMP180;494;48.744;10.106;2023-01-19T01:42:16;94272.00;;;-0.60
30765;BMP180;494;48.744;10.106;2023-01-19T01:44:49;94458.00;;;-4.90
30765;BMP180;494;48.744;10.106;2023-01-19T01:47:27;94393.00;;;-0.70
30765;BMP180;494;48.744;10.106;2023-01-19T01:50:09;94418.00;;;-0.80
30765;BMP180;494;48.744;10.106;2023-01-19T01:52:44;94561.00;;;-0.70
30765;BMP180;494;48.744;10.106;2023-01-19T01:55:40;94240.00;;;-1.90
30765;BMP180;494;48.744;10.106;2023-01-19T01:58:12;94771.00;;;-0.70
30765;BMP180;494;48.744;10.106;2023-01-19T02:00:43;93994.00;;;-0.70
30765;BMP180;494;48.744;10.106;2023-01-19T02:03:29;94622.00;;;-0.80
30765;BMP180;494;48.744;10.106;2023-01-19T02:06:06;94408.00;;;-1.20
30765;BMP180;494;48.744;10.106;2023-01-19T02:08:42;94612.00;;;-1.20
30765;BMP180;494;48.744;10.106;2023-01-19T02:11:32;94106.00;;;-2.40
30765;BMP180;494;48.744;10.106;2023-01-19T02:14:20;94479.00;;;-0.90
30765;BMP180;494;48.744;10.106;2023-01-19T02:16:50;94426.00;;;-0.90
30765;BMP180;494;48.744;10.106;2023-01-19T02:19:26;94367.00;;;-0.90
30765;BMP180;494;48.744;10.106;2023-01-19T02:22:04;94577.00;;;-0.90
30765;BMP180;494;48.744;10.106;2023-01-19T02:24:37;94262.00;;;-2.30
30765;BMP180;494;48.744;10.106;2023-01-19T02:27:08;94611.00;;;-1.00
30765;BMP180;494;48.744;10.106;2023-01-19T02:29:39;94668.00;;;-0.90
30765;BMP180;494;48.744;10.106;2023-01-19T02:32:09;94508.00;;;-1.90
30765;BMP180;494;48.744;10.106;2023-01-19T02:34:40;94429.00;;;-0.90
30765;BMP180;494;48.744;10.106;2023-01-19T02:37:13;94608.00;;;-1.00
30765;BMP180;494;48.744;10.106;2023-01-19T02:39:50;94453.00;;;-0.90
30765;BMP180;494;48.744;10.106;2023-01-19T02:42:25;94609.00;;;-1.00
30765;BMP180;494;48.744;10.106;2023-01-19T02:44:57;94669.00;;;-2.50
30765;BMP180;494;48.744;10.106;2023-01-19T02:47:26;93102.00;;;-3.90
30765;BMP180;494;48.744;10.106;2023-01-19T02:50:40;94821.00;;;-1.40
30765;BMP180;494;48.744;10.106;2023-01-19T02:53:41;94296.00;;;-2.80
30765;BMP180;494;48.744;10.106;2023-01-19T02:57:00;94633.00;;;-1.30
30765;BMP180;494;48.744;10.106;2023-01-19T02:59:51;94478.00;;;-1.30
30765;BMP180;494;48.744;10.106;2023-01-19T03:02:35;94606.00;;;-1.30
30765;BMP180;494;48.744;10.106;2023-01-19T03:05:30;94253.00;;;-3.20
30765;BMP180;494;48.744;10.106;2023-01-19T03:08:15;94437.00;;;-5.10
30765;BMP180;494;48.744;10.106;2023-01-19T03:10:56;94741.00;;;-2.80
30765;BMP180;494;48.744;10.106;2023-01-19T03:13:37;94212.00;;;-3.10
30765;BMP180;494;48.744;10.106;2023-01-19T03:16:18;94189.00;;;-1.90
30765;BMP180;494;48.744;10.106;2023-01-19T03:18:55;94648.00;;;-1.40
30765;BMP180;494;48.744;10.106;2023-01-19T03:21:28;93799.00;;;-2.40
30765;BMP180;494;48.744;10.106;2023-01-19T03:24:04;94634.00;;;-1.40
30765;BMP180;494;48.744;10.106;2023-01-19T03:26:38;94448.00;;;-2.80
30765;BMP180;494;48.744;10.106;2023-01-19T03:29:14;94089.00;;;-3.60
30765;BMP180;494;48.744;10.106;2023-01-19T03:31:49;94365.00;;;-4.30
30765;BMP180;494;48.744;10.106;2023-01-19T03:34:20;94498.00;;;-3.50
30765;BMP180;494;48.744;10.106;2023-01-19T03:36:55;94508.00;;;-3.30
30765;BMP180;494;48.744;10.106;2023-01-19T03:39:27;94276.00;;;-2.20
30765;BMP180;494;48.744;10.106;2023-01-19T03:42:01;93555.00;;;-1.50
30765;BMP180;494;48.744;10.106;2023-01-19T03:44:37;93292.00;;;-1.70
30765;BMP180;494;48.744;10.106;2023-01-19T03:47:10;94521.00;;;-1.60
30765;BMP180;494;48.744;10.106;2023-01-19T03:49:44;94631.00;;;-1.60
30765;BMP180;494;48.744;10.106;2023-01-19T03:52:14;94253.00;;;-4.20
30765;BMP180;494;48.744;10.106;2023-01-19T03:54:42;93640.00;;;-3.90
30765;BMP180;494;48.744;10.106;2023-01-19T03:57:11;94634.00;;;-2.40
30765;BMP180;494;48.744;10.106;2023-01-19T03:59:41;94629.00;;;-1.70
30765;BMP180;494;48.744;10.106;2023-01-19T04:02:09;94229.00;;;-4.40
30765;BMP180;494;48.744;10.106;2023-01-19T04:04:38;94626.00;;;-1.70
30765;BMP180;494;48.744;10.106;2023-01-19T04:07:09;94678.00;;;-1.80
30765;BMP180;494;48.744;10.106;2023-01-19T04:09:37;94762.00;;;-4.40
30765;BMP180;494;48.744;10.106;2023-01-19T04:12:06;94536.00;;;-1.90
30765;BMP180;494;48.744;10.106;2023-01-19T04:14:36;94008.00;;;-1.80
30765;BMP180;494;48.744;10.106;2023-01-19T04:17:06;94092.00;;;-2.00
30765;BMP180;494;48.744;10.106;2023-01-19T04:19:36;94355.00;;;-6.90
30765;BMP180;494;48.744;10.106;2023-01-19T04:22:05;94771.00;;;-1.90
30765;BMP180;494;48.744;10.106;2023-01-19T04:24:33;94105.00;;;-1.80
30765;BMP180;494;48.744;10.106;2023-01-19T04:27:02;94577.00;;;-1.90
30765;BMP180;494;48.744;10.106;2023-01-19T04:29:31;94784.00;;;-1.90
30765;BMP180;494;48.744;10.106;2023-01-19T04:32:00;94640.00;;;-3.20
30765;BMP180;494;48.744;10.106;2023-01-19T04:34:31;93137.00;;;-2.00
30765;BMP180;494;48.744;10.106;2023-01-19T04:36:59;94641.00;;;-1.90
30765;BMP180;494;48.744;10.106;2023-01-19T04:39:28;94749.00;;;-2.00
30765;BMP180;494;48.744;10.106;2023-01-19T04:41:56;93479.00;;;-2.00
30765;BMP180;494;48.744;10.106;2023-01-19T04:44:25;94035.00;;;-3.60
30765;BMP180;494;48.744;10.106;2023-01-19T04:46:54;94444.00;;;-4.70
30765;BMP180;494;48.744;10.106;2023-01-19T04:49:22;94636.00;;;-2.10
30765;BMP180;494;48.744;10.106;2023-01-19T04:51:53;93438.00;;;-2.10
30765;BMP180;494;48.744;10.106;2023-01-19T04:54:23;94508.00;;;-2.10
30765;BMP180;494;48.744;10.106;2023-01-19T04:56:53;94417.00;;;-6.80
30765;BMP180;494;48.744;10.106;2023-01-19T04:59:21;94085.00;;;-6.30
30765;BMP180;494;48.744;10.106;2023-01-19T05:01:51;94850.00;;;-2.20
30765;BMP180;494;48.744;10.106;2023-01-19T05:04:20;94309.00;;;-5.80
30765;BMP180;494;48.744;10.106;2023-01-19T05:06:49;94788.00;;;-2.20
30765;BMP180;494;48.744;10.106;2023-01-19T05:09:19;93415.00;;;-5.20
30765;BMP180;494;48.744;10.106;2023-01-19T05:11:47;94786.00;;;-2.30
30765;BMP180;494;48.744;10.106;2023-01-19T05:14:16;94163.00;;;-2.20
30765;BMP180;494;48.744;10.106;2023-01-19T05:16:45;94592.00;;;-2.50
30765;BMP180;494;48.744;10.106;2023-01-19T05:19:13;94819.00;;;-2.50
30765;BMP180;494;48.744;10.106;2023-01-19T05:21:42;94218.00;;;-2.40
30765;BMP180;494;48.744;10.106;2023-01-19T05:24:10;93838.00;;;-2.40
30765;BMP180;494;48.744;10.106;2023-01-19T05:26:40;94091.00;;;-2.40
30765;BMP180;494;48.744;10.106;2023-01-19T05:29:09;94495.00;;;-2.50
30765;BMP180;494;48.744;10.106;2023-01-19T05:31:38;94338.00;;;-2.30
30765;BMP180;494;48.744;10.106;2023-01-19T05:34:09;94525.00;;;-2.40
30765;BMP180;494;48.744;10.106;2023-01-19T05:36:38;93888.00;;;-2.50
30765;BMP180;494;48.744;10.106;2023-01-19T05:39:07;94675.00;;;-3.10
30765;BMP180;494;48.744;10.106;2023-01-19T05:41:36;94660.00;;;-2.50
30765;BMP180;494;48.744;10.106;2023-01-19T05:44:06;94872.00;;;-5.40
30765;BMP180;494;48.744;10.106;2023-01-19T05:46:35;94735.00;;;-5.40
30765;BMP180;494;48.744;10.106;2023-01-19T05:49:04;94822.00;;;-2.70
30765;BMP180;494;48.744;10.106;2023-01-19T05:51:33;94361.00;;;-2.60
30765;BMP180;494;48.744;10.106;2023-01-19T05:54:04;94864.00;;;-4.50
30765;BMP180;494;48.744;10.106;2023-01-19T05:56:33;93939.00;;;-2.70
30765;BMP180;494;48.744;10.106;2023-01-19T05:59:02;94698.00;;;-2.70
30765;BMP180;494;48.744;10.106;2023-01-19T06:01:32;94723.00;;;-4.70
30765;BMP180;494;48.744;10.106;2023-01-19T06:04:06;94870.00;;;-5.50
30765;BMP180;494;48.744;10.106;2023-01-19T06:06:34;94288.00;;;-4.80
30765;BMP180;494;48.744;10.106;2023-01-19T06:09:03;94771.00;;;-7.40
30765;BMP180;494;48.744;10.106;2023-01-19T06:11:31;94925.00;;;-2.80
30765;BMP180;494;48.744;10.106;2023-01-19T06:14:00;94016.00;;;-3.00
30765;BMP180;494;48.744;10.106;2023-01-19T06:16:28;94633.00;;;-5.40
30765;BMP180;494;48.744;10.106;2023-01-19T06:18:59;94496.00;;;-3.00
30765;BMP180;494;48.744;10.106;2023-01-19T06:21:27;94907.00;;;-3.10
30765;BMP180;494;48.744;10.106;2023-01-19T06:23:56;94089.00;;;-3.00
30765;BMP180;494;48.744;10.106;2023-01-19T06:26:25;94355.00;;;-3.60
30765;BMP180;494;48.744;10.106;2023-01-19T06:28:54;94695.00;;;-3.00
30765;BMP180;494;48.744;10.106;2023-01-19T06:31:23;94693.00;;;-5.40
30765;BMP180;494;48.744;10.106;2023-01-19T06:33:51;94598.00;;;-3.30
30765;BMP180;494;48.744;10.106;2023-01-19T06:36:21;94306.00;;;-2.80
30765;BMP180;494;48.744;10.106;2023-01-19T06:38:50;94677.00;;;-3.90
30765;BMP180;494;48.744;10.106;2023-01-19T06:41:18;94850.00;;;-2.80
30765;BMP180;494;48.744;10.106;2023-01-19T06:43:47;94811.00;;;-2.70
30765;BMP180;494;48.744;10.106;2023-01-19T06:46:15;94593.00;;;-5.20
30765;BMP180;494;48.744;10.106;2023-01-19T06:48:44;94671.00;;;-2.60
30765;BMP180;494;48.744;10.106;2023-01-19T06:51:13;93125.00;;;-2.40
30765;BMP180;494;48.744;10.106;2023-01-19T06:53:43;94831.00;;;-2.60
30765;BMP180;494;48.744;10.106;2023-01-19T06:56:12;93236.00;;;-2.50
30765;BMP180;494;48.744;10.106;2023-01-19T06:58:41;94810.00;;;-2.60
30765;BMP180;494;48.744;10.106;2023-01-19T07:01:10;94065.00;;;-7.30
30765;BMP180;494;48.744;10.106;2023-01-19T07:03:39;94787.00;;;-4.00
30765;BMP180;494;48.744;10.106;2023-01-19T07:06:08;94579.00;;;-4.80
30765;BMP180;494;48.744;10.106;2023-01-19T07:08:37;94859.00;;;-4.40
30765;BMP180;494;48.744;10.106;2023-01-19T07:11:10;94775.00;;;-2.20
30765;BMP180;494;48.744;10.106;2023-01-19T07:13:59;94420.00;;;-2.20
30765;BMP180;494;48.744;10.106;2023-01-19T07:16:27;94752.00;;;-2.10
30765;BMP180;494;48.744;10.106;2023-01-19T07:18:56;93483.00;;;-2.60
30765;BMP180;494;48.744;10.106;2023-01-19T07:21:25;95030.00;;;-2.00
30765;BMP180;494;48.744;10.106;2023-01-19T07:23:55;94959.00;;;-1.80
30765;BMP180;494;48.744;10.106;2023-01-19T07:26:26;93512.00;;;-2.50
30765;BMP180;494;48.744;10.106;2023-01-19T07:28:54;93230.00;;;-1.80
30765;BMP180;494;48.744;10.106;2023-01-19T07:31:23;94555.00;;;-1.80
30765;BMP180;494;48.744;10.106;2023-01-19T07:33:52;94843.00;;;-1.90
30765;BMP180;494;48.744;10.106;2023-01-19T07:36:21;95042.00;;;-1.70
30765;BMP180;494;48.744;10.106;2023-01-19T07:38:49;94526.00;;;-1.90
30765;BMP180;494;48.744;10.106;2023-01-19T07:41:18;94718.00;;;-3.50
30765;BMP180;494;48.744;10.106;2023-01-19T07:43:49;94488.00;;;-2.60
30765;BMP180;494;48.744;10.106;2023-01-19T07:46:20;93194.00;;;-3.00
30765;BMP180;494;48.744;10.106;2023-01-19T07:48:49;94455.00;;;-1.90
30765;BMP180;494;48.744;10.106;2023-01-19T07:51:17;94486.00;;;-1.80
30765;BMP180;494;48.744;10.106;2023-01-19T07:53:48;94305.00;;;-3.70
30765;BMP180;494;48.744;10.106;2023-01-19T07:56:17;94128.00;;;-1.80
30765;BMP180;494;48.744;10.106;2023-01-19T07:58:47;93959.00;;;-1.60
30765;BMP180;494;48.744;10.106;2023-01-19T08:01:18;93921.00;;;-3.50
30765;BMP180;494;48.744;10.106;2023-01-19T08:03:47;94843.00;;;-1.40
30765;BMP180;494;48.744;10.106;2023-01-19T08:06:20;94772.00;;;-1.20
30765;BMP180;494;48.744;10.106;2023-01-19T08:08:49;94872.00;;;-1.20
30765;BMP180;494;48.744;10.106;2023-01-19T08:11:18;94886.00;;;-3.80
30765;BMP180;494;48.744;10.106;2023-01-19T08:13:48;94433.00;;;-0.40
30765;BMP180;494;48.744;10.106;2023-01-19T08:16:17;94940.00;;;-0.30
30765;BMP180;494;48.744;10.106;2023-01-19T08:18:45;93723.00;;;-0.20
30765;BMP180;494;48.744;10.106;2023-01-19T08:21:14;94832.00;;;-0.50
30765;BMP180;494;48.744;10.106;2023-01-19T08:23:43;94457.00;;;-0.70
30765;BMP180;494;48.744;10.106;2023-01-19T08:26:19;94719.00;;;-3.90
30765;BMP180;494;48.744;10.106;2023-01-19T08:28:51;94528.00;;;-3.90
30765;BMP180;494;48.744;10.106;2023-01-19T08:31:20;95119.00;;;-0.40
30765;BMP180;494;48.744;10.106;2023-01-19T08:33:51;93396.00;;;-2.30
30765;BMP180;494;48.744;10.106;2023-01-19T08:36:20;94774.00;;;-0.20
30765;BMP180;494;48.744;10.106;2023-01-19T08:38:50;94824.00;;;0.00
30765;BMP180;494;48.744;10.106;2023-01-19T08:41:18;94958.00;;;-2.10
30765;BMP180;494;48.744;10.106;2023-01-19T08:43:47;94683.00;;;-2.40
30765;BMP180;494;48.744;10.106;2023-01-19T08:46:17;94539.00;;;0.40
30765;BMP180;494;48.744;10.106;2023-01-19T08:48:48;95010.00;;;0.00
30765;BMP180;494;48.744;10.106;2023-01-19T08:51:17;94357.00;;;-1.70
30765;BMP180;494;48.744;10.106;2023-01-19T08:53:46;93876.00;;;-3.20
30765;BMP180;494;48.744;10.106;2023-01-19T08:56:15;94450.00;;;0.20
30765;BMP180;494;48.744;10.106;2023-01-19T08:58:46;93872.00;;;-2.80
30765;BMP180;494;48.744;10.106;2023-01-19T09:01:35;94575.00;;;-1.00
30765;BMP180;494;48.744;10.106;2023-01-19T09:04:04;94765.00;;;-1.70
30765;BMP180;494;48.744;10.106;2023-01-19T09:06:33;94461.00;;;-0.10
30765;BMP180;494;48.744;10.106;2023-01-19T09:09:02;94833.00;;;-0.20
30765;BMP180;494;48.744;10.106;2023-01-19T09:11:30;94866.00;;;-0.50
30765;BMP180;494;48.744;10.106;2023-01-19T09:13:59;94682.00;;;-0.50
30765;BMP180;494;48.744;10.106;2023-01-19T09:16:27;93566.00;;;-3.30
30765;BMP180;494;48.744;10.106;2023-01-19T09:18:57;94439.00;;;-2.30
30765;BMP180;494;48.744;10.106;2023-01-19T09:21:26;94209.00;;;-0.20
30765;BMP180;494;48.744;10.106;2023-01-19T09:23:55;94508.00;;;1.90
30765;BMP180;494;48.744;10.106;2023-01-19T09:26:23;94556.00;;;3.30
30765;BMP180;494;48.744;10.106;2023-01-19T09:28:52;94761.00;;;4.60
30765;BMP180;494;48.744;10.106;2023-01-19T09:31:20;94755.00;;;5.50
30765;BMP180;494;48.744;10.106;2023-01-19T09:33:49;94493.00;;;6.80
30765;BMP180;494;48.744;10.106;2023-01-19T09:36:20;94628.00;;;6.60
30765;BMP180;494;48.744;10.106;2023-01-19T09:38:48;94207.00;;;7.00
30765;BMP180;494;48.744;10.106;2023-01-19T09:41:20;94891.00;;;8.50
30765;BMP180;494;48.744;10.106;2023-01-19T09:43:55;93934.00;;;9.30
30765;BMP180;494;48.744;10.106;2023-01-19T09:46:32;94529.00;;;8.90
30765;BMP180;494;48.744;10.106;2023-01-19T09:49:09;93748.00;;;7.10
30765;BMP180;494;48.744;10.106;2023-01-19T09:51:45;93696.00;;;6.90
30765;BMP180;494;48.744;10.106;2023-01-19T09:54:16;94574.00;;;7.10
30765;BMP180;494;48.744;10.106;2023-01-19T09:56:47;93759.00;;;6.30
30765;BMP180;494;48.744;10.106;2023-01-19T09:59:22;94587.00;;;5.50
30765;BMP180;494;48.744;10.106;2023-01-19T10:02:22;94564.00;;;8.00
30765;BMP180;494;48.744;10.106;2023-01-19T10:04:59;94719.00;;;8.40
30765;BMP180;494;48.744;10.106;2023-01-19T10:07:45;94532.00;;;8.00
30765;BMP180;494;48.744;10.106;2023-01-19T10:10:22;94772.00;;;7.50
30765;BMP180;494;48.744;10.106;2023-01-19T10:13:18;94769.00;;;6.80
30765;BMP180;494;48.744;10.106;2023-01-19T10:16:01;94708.00;;;6.40
30765;BMP180;494;48.744;10.106;2023-01-19T10:18:42;94763.00;;;6.30
30765;BMP180;494;48.744;10.106;2023-01-19T10:21:20;94617.00;;;5.80
30765;BMP180;494;48.744;10.106;2023-01-19T10:23:56;94792.00;;;5.70
30765;BMP180;494;48.744;10.106;2023-01-19T10:26:31;94248.00;;;5.40
30765;BMP180;494;48.744;10.106;2023-01-19T10:29:04;94786.00;;;5.10
30765;BMP180;494;48.744;10.106;2023-01-19T10:31:36;94730.00;;;5.20
30765;BMP180;494;48.744;10.106;2023-01-19T10:34:10;94771.00;;;5.90
30765;BMP180;494;48.744;10.106;2023-01-19T10:36:53;94498.00;;;6.40
30765;BMP180;494;48.744;10.106;2023-01-19T10:39:25;94762.00;;;6.90
30765;BMP180;494;48.744;10.106;2023-01-19T10:41:56;94797.00;;;9.70
30765;BMP180;494;48.744;10.106;2023-01-19T10:44:32;94529.00;;;11.20
30765;BMP180;494;48.744;10.106;2023-01-19T10:47:05;94758.00;;;13.10
30765;BMP180;494;48.744;10.106;2023-01-19T10:49:40;94603.00;;;14.00
30765;BMP180;494;48.744;10.106;2023-01-19T10:52:29;94810.00;;;12.30
30765;BMP180;494;48.744;10.106;2023-01-19T10:55:03;94535.00;;;15.40
30765;BMP180;494;48.744;10.106;2023-01-19T10:57:35;94727.00;;;17.30
30765;BMP180;494;48.744;10.106;2023-01-19T11:00:30;94725.00;;;18.30
30765;BMP180;494;48.744;10.106;2023-01-19T11:02:59;94516.00;;;17.40
30765;BMP180;494;48.744;10.106;2023-01-19T11:05:32;94648.00;;;16.70
30765;BMP180;494;48.744;10.106;2023-01-19T11:08:21;94538.00;;;15.10
30765;BMP180;494;48.744;10.106;2023-01-19T11:10:58;94528.00;;;13.10
30765;BMP180;494;48.744;10.106;2023-01-19T11:13:31;94829.00;;;11.90
30765;BMP180;494;48.744;10.106;2023-01-19T11:16:05;94796.00;;;10.60
30765;BMP180;494;48.744;10.106;2023-01-19T11:18:39;94753.00;;;9.80
30765;BMP180;494;48.744;10.106;2023-01-19T11:21:11;94543.00;;;9.50
30765;BMP180;494;48.744;10.106;2023-01-19T11:23:44;94663.00;;;8.50
30765;BMP180;494;48.744;10.106;2023-01-19T11:26:26;94752.00;;;9.50
30765;BMP180;494;48.744;10.106;2023-01-19T11:28:57;94702.00;;;10.90
30765;BMP180;494;48.744;10.106;2023-01-19T11:31:33;94541.00;;;11.60
30765;BMP180;494;48.744;10.106;2023-01-19T11:34:03;94785.00;;;11.20
30765;BMP180;494;48.744;10.106;2023-01-19T11:36:34;94735.00;;;10.80
30765;BMP180;494;48.744;10.106;2023-01-19T11:39:21;94429.00;;;10.40
30765;BMP180;494;48.744;10.106;2023-01-19T11:41:55;94063.00;;;8.40
30765;BMP180;494;48.744;10.106;2023-01-19T11:44:29;94737.00;;;9.80
30765;BMP180;494;48.744;10.106;2023-01-19T11:47:02;94731.00;;;9.40
30765;BMP180;494;48.744;10.106;2023-01-19T11:49:41;94592.00;;;9.10
30765;BMP180;494;48.744;10.106;2023-01-19T11:52:25;94732.00;;;9.90
30765;BMP180;494;48.744;10.106;2023-01-19T11:55:00;94474.00;;;10.80
30765;BMP180;494;48.744;10.106;2023-01-19T11:57:32;94516.00;;;9.90
30765;BMP180;494;48.744;10.106;2023-01-19T12:00:04;94633.00;;;9.20
30765;BMP180;494;48.744;10.106;2023-01-19T12:02:46;94737.00;;;8.50
30765;BMP180;494;48.744;10.106;2023-01-19T12:05:19;94469.00;;;8.40
30765;BMP180;494;48.744;10.106;2023-01-19T12:07:51;94725.00;;;10.00
30765;BMP180;494;48.744;10.106;2023-01-19T12:10:26;94285.00;;;12.10
30765;BMP180;494;48.744;10.106;2023-01-19T12:12:57;94720.00;;;14.30
30765;BMP180;494;48.744;10.106;2023-01-19T12:15:35;94768.00;;;14.40
30765;BMP180;494;48.744;10.106;2023-01-19T12:18:09;94748.00;;;14.10
30765;BMP180;494;48.744;10.106;2023-01-19T12:20:43;94519.00;;;12.80
30765;BMP180;494;48.744;10.106;2023-01-19T12:23:30;94598.00;;;10.90
30765;BMP180;494;48.744;10.106;2023-01-19T12:26:21;94558.00;;;10.10
30765;BMP180;494;48.744;10.106;2023-01-19T12:28:58;94609.00;;;8.90
30765;BMP180;494;48.744;10.106;2023-01-19T12:31:27;94748.00;;;9.20
30765;BMP180;494;48.744;10.106;2023-01-19T12:34:39;94693.00;;;8.10
30765;BMP180;494;48.744;10.106;2023-01-19T12:37:37;94599.00;;;7.80
30765;BMP180;494;48.744;10.106;2023-01-19T12:40:24;94716.00;;;7.30
30765;BMP180;494;48.744;10.106;2023-01-19T12:42:59;94581.00;;;6.80
30765;BMP180;494;48.744;10.106;2023-01-19T12:45:34;94725.00;;;6.70
30765;BMP180;494;48.744;10.106;2023-01-19T12:48:04;94655.00;;;6.60
30765;BMP180;494;48.744;10.106;2023-01-19T12:50:37;94660.00;;;6.10
30765;BMP180;494;48.744;10.106;2023-01-19T12:53:18;94730.00;;;6.50
30765;BMP180;494;48.744;10.106;2023-01-19T12:55:58;94495.00;;;5.60
30765;BMP180;494;48.744;10.106;2023-01-19T12:58:27;94741.00;;;6.40
30765;BMP180;494;48.744;10.106;2023-01-19T13:04:03;94735.00;;;6.50
30765;BMP180;494;48.744;10.106;2023-01-19T13:07:09;94446.00;;;6.40
30765;BMP180;494;48.744;10.106;2023-01-19T13:09:39;94734.00;;;6.10
30765;BMP180;494;48.744;10.106;2023-01-19T13:12:24;94740.00;;;6.30
30765;BMP180;494;48.744;10.106;2023-01-19T13:15:27;94528.00;;;6.30
30765;BMP180;494;48.744;10.106;2023-01-19T13:17:57;94738.00;;;5.60
30765;BMP180;494;48.744;10.106;2023-01-19T13:20:41;94750.00;;;5.50
30765;BMP180;494;48.744;10.106;2023-01-19T13:23:20;94819.00;;;4.30
30765;BMP180;494;48.744;10.106;2023-01-19T13:26:01;93930.00;;;3.10
30765;BMP180;494;48.744;10.106;2023-01-19T13:28:37;94799.00;;;5.40
30765;BMP180;494;48.744;10.106;2023-01-19T13:31:06;94742.00;;;5.00
30765;BMP180;494;48.744;10.106;2023-01-19T13:33:46;94007.00;;;4.60
30765;BMP180;494;48.744;10.106;2023-01-19T13:36:26;94741.00;;;4.90
30765;BMP180;494;48.744;10.106;2023-01-19T13:38:59;94136.00;;;3.90
30765;BMP180;494;48.744;10.106;2023-01-19T13:41:34;94742.00;;;4.60
30765;BMP180;494;48.744;10.106;2023-01-19T13:44:08;93816.00;;;5.00
30765;BMP180;494;48.744;10.106;2023-01-19T13:46:40;94510.00;;;4.80
30765;BMP180;494;48.744;10.106;2023-01-19T13:49:18;94542.00;;;4.40
30765;BMP180;494;48.744;10.106;2023-01-19T13:54:52;94705.00;;;5.10
30765;BMP180;494;48.744;10.106;2023-01-19T13:57:24;94743.00;;;5.10
30765;BMP180;494;48.744;10.106;2023-01-19T14:00:17;94747.00;;;5.30
30765;BMP180;494;48.744;10.106;2023-01-19T14:02:58;94801.00;;;5.40
30765;BMP180;494;48.744;10.106;2023-01-19T14:05:30;94748.00;;;5.50
30765;BMP180;494;48.744;10.106;2023-01-19T14:08:05;94753.00;;;5.30
30765;BMP180;494;48.744;10.106;2023-01-19T14:10:39;94317.00;;;5.10
30765;BMP180;494;48.744;10.106;2023-01-19T14:13:15;94612.00;;;5.10
30765;BMP180;494;48.744;10.106;2023-01-19T14:15:48;94689.00;;;4.50
30765;BMP180;494;48.744;10.106;2023-01-19T14:18:27;94550.00;;;5.40
30765;BMP180;494;48.744;10.106;2023-01-19T14:21:02;94607.00;;;4.40
30765;BMP180;494;48.744;10.106;2023-01-19T14:23:43;94759.00;;;5.00
30765;BMP180;494;48.744;10.106;2023-01-19T14:26:46;94730.00;;;5.00
30765;BMP180;494;48.744;10.106;2023-01-19T14:29:22;94777.00;;;5.00
30765;BMP180;494;48.744;10.106;2023-01-19T14:32:05;94550.00;;;5.10
30765;BMP180;494;48.744;10.106;2023-01-19T14:34:37;94660.00;;;5.00
30765;BMP180;494;48.744;10.106;2023-01-19T14:37:19;94763.00;;;5.00
30765;BMP180;494;48.744;10.106;2023-01-19T14:39:50;94605.00;;;4.80
30765;BMP180;494;48.744;10.106;2023-01-19T14:42:26;94816.00;;;4.00
30765;BMP180;494;48.744;10.106;2023-01-19T14:44:59;94764.00;;;4.20
30765;BMP180;494;48.744;10.106;2023-01-19T14:47:35;94463.00;;;3.90
30765;BMP180;494;48.744;10.106;2023-01-19T14:50:18;94624.00;;;4.10
30765;BMP180;494;48.744;10.106;2023-01-19T14:52:54;94819.00;;;2.40
30765;BMP180;494;48.744;10.106;2023-01-19T14:55:28;94762.00;;;4.30
30765;BMP180;494;48.744;10.106;2023-01-19T14:58:00;94543.00;;;4.40
30765;BMP180;494;48.744;10.106;2023-01-19T15:00:29;94629.00;;;4.20
30765;BMP180;494;48.744;10.106;2023-01-19T15:02:57;94501.00;;;3.80
30765;BMP180;494;48.744;10.106;2023-01-19T15:05:26;94592.00;;;4.00
30765;BMP180;494;48.744;10.106;2023-01-19T15:07:54;94762.00;;;4.30
30765;BMP180;494;48.744;10.106;2023-01-19T15:10:24;94417.00;;;4.50